PWSweather.com
Personal Weather Stations
Station Observations
KPAMECHA5
Mechanicsburg, PA 17050

Mechanicsburg, PA 17050

Lat: 40.21531, Lon: -77.0395

Elevation: 430

Station Type: Davis 6322

http://MechanicsburgWeather.com

Latest ConditionsUpdated 11:50:03 AM EST Tuesday, Jan 27, 2015
Currently Today's Max Today's Min Today's Average
Temperature 30.2°F-1.0°C 30.2°F-1.0°C 25.2°F-3.8°C 26.7°F-2.9°C
Dew Point 22.6°F-5.2°C 23.8°F-4.6°C 21.4°F-5.9°C 22.9°F-5.1°C
Winds 5.1 mph NW8.2 kmh NW 7.0 mph NW11.3 kmh NW - 2.4 mph 3.9 kmh
Wind Gusts 8.0 mph12.9 kmh 13.0 mph20.9 kmh - -
Humidity 73% 94% 73% 86%
Pressure 29.79 in1008.8 mb 29.80 in1009.1 mb 29.73 in1006.8 mb -
Hour Temp Dew Point Humidity Winds Wind Gusts Pressure Precip Precip Rate Daily Precip Total
11:50 AM 30.2°F-1.0°C 22.6°F-5.2°C 73% 5.1 mph NW8.2 kmh NW 8.0 mph12.9 kmh 29.79 in1008.8 mb 0.00 in0.0 mm 0.00 in/hr0.0 mm/hr 0.00 in0.0 mm
11:40 AM 29.9°F-1.2°C 22.3°F-5.4°C 73% 2.2 mph NNW3.5 kmh NNW 6.0 mph9.7 kmh 29.80 in1009.1 mb 0.00 in0.0 mm 0.00 in/hr0.0 mm/hr 0.00 in0.0 mm
11:30 AM 29.5°F-1.4°C 21.9°F-5.6°C 73% 6.7 mph N10.8 kmh N 10.0 mph16.1 kmh 29.80 in1009.1 mb 0.00 in0.0 mm 0.00 in/hr0.0 mm/hr 0.00 in0.0 mm
11:20 AM 29.4°F-1.4°C 22.1°F-5.5°C 74% 4.0 mph NW6.4 kmh NW 5.0 mph8.0 kmh 29.80 in1009.1 mb 0.00 in0.0 mm 0.00 in/hr0.0 mm/hr 0.00 in0.0 mm
11:10 AM 29.0°F-1.7°C 22.1°F-5.5°C 75% 1.7 mph NW2.7 kmh NW 8.0 mph12.9 kmh 29.80 in1009.1 mb 0.00 in0.0 mm 0.00 in/hr0.0 mm/hr 0.00 in0.0 mm
11:00 AM 28.3°F-2.1°C 21.4°F-5.9°C 75% 6.1 mph NNW9.8 kmh NNW 13.0 mph20.9 kmh 29.80 in1009.1 mb 0.00 in0.0 mm 0.00 in/hr0.0 mm/hr 0.00 in0.0 mm
10:50 AM 28.1°F-2.2°C 21.5°F-5.8°C 76% 5.4 mph NNW8.7 kmh NNW 7.0 mph11.3 kmh 29.80 in1009.1 mb 0.00 in0.0 mm 0.00 in/hr0.0 mm/hr 0.00 in0.0 mm
10:40 AM 28.0°F-2.2°C 21.7°F-5.7°C 77% 7.0 mph NW11.3 kmh NW 9.0 mph14.5 kmh 29.80 in1009.1 mb 0.00 in0.0 mm 0.00 in/hr0.0 mm/hr 0.00 in0.0 mm
10:30 AM 27.8°F-2.3°C 21.8°F-5.7°C 78% 2.7 mph NW4.3 kmh NW 7.0 mph11.3 kmh 29.80 in1009.1 mb 0.00 in0.0 mm 0.00 in/hr0.0 mm/hr 0.00 in0.0 mm
10:20 AM 27.8°F-2.3°C 21.8°F-5.7°C 78% 2.3 mph NW3.7 kmh NW 5.0 mph8.0 kmh 29.80 in1009.1 mb 0.00 in0.0 mm 0.00 in/hr0.0 mm/hr 0.00 in0.0 mm
10:10 AM 27.7°F-2.4°C 22.0°F-5.6°C 79% 3.4 mph NW5.5 kmh NW 7.0 mph11.3 kmh 29.79 in1008.8 mb 0.00 in0.0 mm 0.00 in/hr0.0 mm/hr 0.00 in0.0 mm
10:00 AM 27.4°F-2.6°C 22.0°F-5.6°C 80% 0.2 mph WNW0.3 kmh WNW -- 29.79 in1008.8 mb 0.00 in0.0 mm 0.00 in/hr0.0 mm/hr 0.00 in0.0 mm
09:50 AM 27.2°F-2.7°C 21.8°F-5.7°C 80% 1.1 mph NNW1.8 kmh NNW 5.0 mph8.0 kmh 29.79 in1008.8 mb 0.00 in0.0 mm 0.00 in/hr0.0 mm/hr 0.00 in0.0 mm
09:40 AM 27.2°F-2.7°C 21.8°F-5.7°C 80% 1.7 mph NW2.7 kmh NW 3.0 mph4.8 kmh 29.78 in1008.5 mb 0.00 in0.0 mm 0.00 in/hr0.0 mm/hr 0.00 in0.0 mm
09:30 AM 27.5°F-2.5°C 22.1°F-5.5°C 80% 4.0 mph NW6.4 kmh NW 12.0 mph19.3 kmh 29.78 in1008.5 mb 0.00 in0.0 mm 0.00 in/hr0.0 mm/hr 0.00 in0.0 mm
09:20 AM 27.4°F-2.6°C 22.0°F-5.6°C 80% 0.1 mph NW0.2 kmh NW 1.0 mph1.6 kmh 29.78 in1008.5 mb 0.00 in0.0 mm 0.00 in/hr0.0 mm/hr 0.00 in0.0 mm
09:10 AM 27.2°F-2.7°C 22.5°F-5.3°C 82% 0.9 mph WNW1.4 kmh WNW -- 29.78 in1008.5 mb 0.00 in0.0 mm 0.00 in/hr0.0 mm/hr 0.00 in0.0 mm
09:00 AM 27.2°F-2.7°C 22.1°F-5.5°C 81% 3.1 mph W5.0 kmh W 4.0 mph6.4 kmh 29.77 in1008.1 mb 0.00 in0.0 mm 0.00 in/hr0.0 mm/hr 0.00 in0.0 mm
08:50 AM 27.1°F-2.7°C 22.3°F-5.4°C 82% 3.2 mph NW5.1 kmh NW 5.0 mph8.0 kmh 29.78 in1008.5 mb 0.00 in0.0 mm 0.00 in/hr0.0 mm/hr 0.00 in0.0 mm
08:40 AM 27.0°F-2.8°C 22.5°F-5.3°C 83% 4.4 mph NW7.1 kmh NW 8.0 mph12.9 kmh 29.77 in1008.1 mb 0.00 in0.0 mm 0.00 in/hr0.0 mm/hr 0.00 in0.0 mm
08:30 AM 26.8°F-2.9°C 22.0°F-5.6°C 82% 0.4 mph NW0.6 kmh NW 3.0 mph4.8 kmh 29.77 in1008.1 mb 0.00 in0.0 mm 0.00 in/hr0.0 mm/hr 0.00 in0.0 mm
08:20 AM 26.6°F-3.0°C 22.1°F-5.5°C 83% 4.7 mph NW7.6 kmh NW 6.0 mph9.7 kmh 29.77 in1008.1 mb 0.00 in0.0 mm 0.00 in/hr0.0 mm/hr 0.00 in0.0 mm
08:10 AM 26.4°F-3.1°C 21.9°F-5.6°C 83% 1.4 mph WNW2.3 kmh WNW 2.0 mph3.2 kmh 29.77 in1008.1 mb 0.00 in0.0 mm 0.00 in/hr0.0 mm/hr 0.00 in0.0 mm
08:00 AM 26.3°F-3.2°C 22.4°F-5.3°C 85% 1.4 mph SW2.3 kmh SW 2.0 mph3.2 kmh 29.76 in1007.8 mb 0.00 in0.0 mm 0.00 in/hr0.0 mm/hr 0.00 in0.0 mm
07:50 AM 26.2°F-3.2°C 22.6°F-5.2°C 86% 1.8 mph NW2.9 kmh NW 8.0 mph12.9 kmh 29.76 in1007.8 mb 0.00 in0.0 mm 0.00 in/hr0.0 mm/hr 0.00 in0.0 mm
07:40 AM 26.1°F-3.3°C 22.5°F-5.3°C 86% 3.1 mph WSW5.0 kmh WSW 9.0 mph14.5 kmh 29.76 in1007.8 mb 0.00 in0.0 mm 0.00 in/hr0.0 mm/hr 0.00 in0.0 mm
07:30 AM 26.2°F-3.2°C 22.5°F-5.3°C 86% 2.2 mph NNW3.5 kmh NNW 5.0 mph8.0 kmh 29.75 in1007.5 mb 0.00 in0.0 mm 0.00 in/hr0.0 mm/hr 0.00 in0.0 mm
07:20 AM 26.2°F-3.2°C 22.9°F-5.1°C 87% 3.5 mph NW5.6 kmh NW 10.0 mph16.1 kmh 29.75 in1007.5 mb 0.00 in0.0 mm 0.00 in/hr0.0 mm/hr 0.00 in0.0 mm
07:10 AM 26.2°F-3.2°C 22.9°F-5.1°C 87% 0.2 mph NW0.3 kmh NW 1.0 mph1.6 kmh 29.75 in1007.5 mb 0.00 in0.0 mm 0.00 in/hr0.0 mm/hr 0.00 in0.0 mm
07:00 AM 26.3°F-3.2°C 23.2°F-4.9°C 88% 2.1 mph NW3.4 kmh NW 4.0 mph6.4 kmh 29.75 in1007.5 mb 0.00 in0.0 mm 0.00 in/hr0.0 mm/hr 0.00 in0.0 mm
06:50 AM 26.3°F-3.2°C 23.0°F-5.0°C 87% 0.6 mph NW1.0 kmh NW 2.0 mph3.2 kmh 29.75 in1007.5 mb 0.00 in0.0 mm 0.00 in/hr0.0 mm/hr 0.00 in0.0 mm
06:40 AM 26.4°F-3.1°C 23.1°F-4.9°C 87% 0.4 mph WSW0.6 kmh WSW 2.0 mph3.2 kmh 29.76 in1007.8 mb 0.00 in0.0 mm 0.00 in/hr0.0 mm/hr 0.00 in0.0 mm
06:30 AM 26.5°F-3.1°C 23.4°F-4.8°C 88% 0.5 mph NW0.8 kmh NW 5.0 mph8.0 kmh 29.76 in1007.8 mb 0.00 in0.0 mm 0.00 in/hr0.0 mm/hr 0.00 in0.0 mm
06:20 AM 26.5°F-3.1°C 23.4°F-4.8°C 88% 2.2 mph NNW3.5 kmh NNW 6.0 mph9.7 kmh 29.76 in1007.8 mb 0.00 in0.0 mm 0.00 in/hr0.0 mm/hr 0.00 in0.0 mm
06:10 AM 26.5°F-3.1°C 23.4°F-4.8°C 88% 3.1 mph WNW5.0 kmh WNW 7.0 mph11.3 kmh 29.75 in1007.5 mb 0.00 in0.0 mm 0.00 in/hr0.0 mm/hr 0.00 in0.0 mm
06:00 AM 26.4°F-3.1°C 23.4°F-4.8°C 88% 3.8 mph NNW6.1 kmh NNW 8.0 mph12.9 kmh 29.75 in1007.5 mb 0.00 in0.0 mm 0.00 in/hr0.0 mm/hr 0.00 in0.0 mm
05:50 AM 26.4°F-3.1°C 23.3°F-4.8°C 88% 3.6 mph NW5.8 kmh NW 7.0 mph11.3 kmh 29.75 in1007.5 mb 0.00 in0.0 mm 0.00 in/hr0.0 mm/hr 0.00 in0.0 mm
05:40 AM 26.3°F-3.2°C 23.3°F-4.8°C 88% 2.6 mph NNW4.2 kmh NNW 8.0 mph12.9 kmh 29.74 in1007.1 mb 0.00 in0.0 mm 0.00 in/hr0.0 mm/hr 0.00 in0.0 mm
05:30 AM 26.3°F-3.2°C 23.3°F-4.8°C 88% 4.7 mph NW7.6 kmh NW 10.0 mph16.1 kmh 29.74 in1007.1 mb 0.00 in0.0 mm 0.00 in/hr0.0 mm/hr 0.00 in0.0 mm
05:20 AM 26.3°F-3.2°C 23.2°F-4.9°C 88% 4.6 mph NNW7.4 kmh NNW 9.0 mph14.5 kmh 29.74 in1007.1 mb 0.00 in0.0 mm 0.00 in/hr0.0 mm/hr 0.00 in0.0 mm
05:10 AM 26.4°F-3.1°C 23.3°F-4.8°C 88% 2.8 mph NW4.5 kmh NW 6.0 mph9.7 kmh 29.74 in1007.1 mb 0.00 in0.0 mm 0.00 in/hr0.0 mm/hr 0.00 in0.0 mm
05:00 AM 26.5°F-3.1°C 23.4°F-4.8°C 88% 1.5 mph NW2.4 kmh NW 5.0 mph8.0 kmh 29.73 in1006.8 mb 0.00 in0.0 mm 0.00 in/hr0.0 mm/hr 0.00 in0.0 mm
04:50 AM 26.6°F-3.0°C 23.5°F-4.7°C 88% 2.8 mph NW4.5 kmh NW 4.0 mph6.4 kmh 29.73 in1006.8 mb 0.00 in0.0 mm 0.00 in/hr0.0 mm/hr 0.00 in0.0 mm
04:40 AM 26.6°F-3.0°C 23.3°F-4.8°C 87% 1.5 mph NW2.4 kmh NW 4.0 mph6.4 kmh 29.73 in1006.8 mb 0.00 in0.0 mm 0.00 in/hr0.0 mm/hr 0.00 in0.0 mm
04:30 AM 26.6°F-3.0°C 23.3°F-4.8°C 87% 4.7 mph NW7.6 kmh NW 7.0 mph11.3 kmh 29.73 in1006.8 mb 0.00 in0.0 mm 0.00 in/hr0.0 mm/hr 0.00 in0.0 mm
04:20 AM 26.5°F-3.1°C 23.2°F-4.9°C 87% 0.1 mph NNW0.2 kmh NNW 1.0 mph1.6 kmh 29.73 in1006.8 mb 0.00 in0.0 mm 0.00 in/hr0.0 mm/hr 0.00 in0.0 mm
04:10 AM 26.5°F-3.1°C 23.4°F-4.8°C 88% 1.5 mph NW2.4 kmh NW 4.0 mph6.4 kmh 29.73 in1006.8 mb 0.00 in0.0 mm 0.00 in/hr0.0 mm/hr 0.00 in0.0 mm
04:00 AM 26.4°F-3.1°C 23.3°F-4.8°C 88% 0.2 mph NNW0.3 kmh NNW -- 29.73 in1006.8 mb 0.00 in0.0 mm 0.00 in/hr0.0 mm/hr 0.00 in0.0 mm
03:50 AM 26.4°F-3.1°C 23.3°F-4.8°C 88% 0.1 mph NW0.2 kmh NW 1.0 mph1.6 kmh 29.73 in1006.8 mb 0.00 in0.0 mm 0.00 in/hr0.0 mm/hr 0.00 in0.0 mm
03:40 AM 26.3°F-3.2°C 23.2°F-4.9°C 88% 1.1 mph NW1.8 kmh NW 4.0 mph6.4 kmh 29.73 in1006.8 mb 0.00 in0.0 mm 0.00 in/hr0.0 mm/hr 0.00 in0.0 mm
03:30 AM 26.2°F-3.2°C 23.1°F-4.9°C 88% 2.1 mph NE3.4 kmh NE 4.0 mph6.4 kmh 29.73 in1006.8 mb 0.00 in0.0 mm 0.00 in/hr0.0 mm/hr 0.00 in0.0 mm
03:20 AM 26.2°F-3.2°C 23.1°F-4.9°C 88% 2.6 mph NNW4.2 kmh NNW 6.0 mph9.7 kmh 29.73 in1006.8 mb 0.00 in0.0 mm 0.00 in/hr0.0 mm/hr 0.00 in0.0 mm
03:10 AM 26.1°F-3.3°C 23.3°F-4.8°C 89% 3.6 mph NW5.8 kmh NW 6.0 mph9.7 kmh 29.73 in1006.8 mb 0.00 in0.0 mm 0.00 in/hr0.0 mm/hr 0.00 in0.0 mm
03:00 AM 26.0°F-3.3°C 23.5°F-4.7°C 90% Calm Calm 2.0 mph3.2 kmh 29.74 in1007.1 mb 0.00 in0.0 mm 0.00 in/hr0.0 mm/hr 0.00 in0.0 mm
02:50 AM 26.1°F-3.3°C 23.6°F-4.7°C 90% 1.4 mph NNW2.3 kmh NNW 3.0 mph4.8 kmh 29.74 in1007.1 mb 0.00 in0.0 mm 0.00 in/hr0.0 mm/hr 0.00 in0.0 mm
02:40 AM 26.1°F-3.3°C 23.6°F-4.7°C 90% 1.1 mph NW1.8 kmh NW 4.0 mph6.4 kmh 29.74 in1007.1 mb 0.00 in0.0 mm 0.00 in/hr0.0 mm/hr 0.00 in0.0 mm
02:30 AM 26.1°F-3.3°C 23.6°F-4.7°C 90% 1.0 mph NW1.6 kmh NW 6.0 mph9.7 kmh 29.75 in1007.5 mb 0.00 in0.0 mm 0.00 in/hr0.0 mm/hr 0.00 in0.0 mm
02:20 AM 26.1°F-3.3°C 23.6°F-4.7°C 90% 3.0 mph NW4.8 kmh NW 6.0 mph9.7 kmh 29.74 in1007.1 mb 0.00 in0.0 mm 0.00 in/hr0.0 mm/hr 0.00 in0.0 mm
02:10 AM 26.0°F-3.3°C 23.5°F-4.7°C 90% 1.1 mph NW1.8 kmh NW 5.0 mph8.0 kmh 29.74 in1007.1 mb 0.00 in0.0 mm 0.00 in/hr0.0 mm/hr 0.00 in0.0 mm
02:00 AM 26.0°F-3.3°C 23.5°F-4.7°C 90% 3.2 mph NW5.1 kmh NW 8.0 mph12.9 kmh 29.74 in1007.1 mb 0.00 in0.0 mm 0.00 in/hr0.0 mm/hr 0.00 in0.0 mm
01:50 AM 25.9°F-3.4°C 23.4°F-4.8°C 90% 2.6 mph NNW4.2 kmh NNW 6.0 mph9.7 kmh 29.73 in1006.8 mb 0.00 in0.0 mm 0.00 in/hr0.0 mm/hr 0.00 in0.0 mm
01:40 AM 25.8°F-3.4°C 23.3°F-4.8°C 90% 3.6 mph NNW5.8 kmh NNW 4.0 mph6.4 kmh 29.73 in1006.8 mb 0.00 in0.0 mm 0.00 in/hr0.0 mm/hr 0.00 in0.0 mm
01:30 AM 25.8°F-3.4°C 23.5°F-4.7°C 91% 1.5 mph NNW2.4 kmh NNW 4.0 mph6.4 kmh 29.74 in1007.1 mb 0.00 in0.0 mm 0.00 in/hr0.0 mm/hr 0.00 in0.0 mm
01:20 AM 25.7°F-3.5°C 23.5°F-4.7°C 91% 1.5 mph NW2.4 kmh NW 3.0 mph4.8 kmh 29.74 in1007.1 mb 0.00 in0.0 mm 0.00 in/hr0.0 mm/hr 0.00 in0.0 mm
01:10 AM 25.6°F-3.6°C 23.6°F-4.7°C 92% 3.0 mph NNW4.8 kmh NNW 5.0 mph8.0 kmh 29.74 in1007.1 mb 0.00 in0.0 mm 0.00 in/hr0.0 mm/hr 0.00 in0.0 mm
01:00 AM 25.6°F-3.6°C 23.6°F-4.7°C 92% 2.2 mph NNW3.5 kmh NNW 5.0 mph8.0 kmh 29.74 in1007.1 mb 0.00 in0.0 mm 0.00 in/hr0.0 mm/hr 0.00 in0.0 mm
12:50 AM 25.5°F-3.6°C 23.8°F-4.6°C 93% 1.8 mph NNW2.9 kmh NNW 3.0 mph4.8 kmh 29.74 in1007.1 mb 0.00 in0.0 mm 0.00 in/hr0.0 mm/hr 0.00 in0.0 mm
12:40 AM 25.4°F-3.7°C 23.7°F-4.6°C 93% 2.1 mph NW3.4 kmh NW 4.0 mph6.4 kmh 29.74 in1007.1 mb 0.00 in0.0 mm 0.00 in/hr0.0 mm/hr 0.00 in0.0 mm
12:30 AM 25.3°F-3.7°C 23.6°F-4.7°C 93% 2.9 mph NNW4.7 kmh NNW 5.0 mph8.0 kmh 29.74 in1007.1 mb 0.00 in0.0 mm 0.00 in/hr0.0 mm/hr 0.00 in0.0 mm
12:20 AM 25.3°F-3.7°C 23.5°F-4.7°C 93% 0.7 mph NNW1.1 kmh NNW 2.0 mph3.2 kmh 29.74 in1007.1 mb 0.00 in0.0 mm 0.00 in/hr0.0 mm/hr 0.00 in0.0 mm
12:10 AM 25.2°F-3.8°C 23.5°F-4.7°C 93% 1.0 mph NW1.6 kmh NW 1.0 mph1.6 kmh 29.74 in1007.1 mb 0.00 in0.0 mm 0.00 in/hr0.0 mm/hr 0.00 in0.0 mm
12:00 AM 25.2°F-3.8°C 23.7°F-4.6°C 94% 2.8 mph NNW4.5 kmh NNW 5.0 mph8.0 kmh 29.74 in1007.1 mb 0.00 in0.0 mm 0.00 in/hr0.0 mm/hr 0.00 in0.0 mm